sensor_id;sensor_type;location;lat;lon;timestamp;temperature;humidity
64937;SHT30;51452;47.698;19.050;2022-10-10T00:00:25;12.72;58.92
64937;SHT30;51452;47.698;19.050;2022-10-10T00:02:50;12.72;59.35
64937;SHT30;51452;47.698;19.050;2022-10-10T00:05:15;12.68;59.33
64937;SHT30;51452;47.698;19.050;2022-10-10T00:07:40;12.68;60.13
64937;SHT30;51452;47.698;19.050;2022-10-10T00:10:06;12.68;60.25
64937;SHT30;51452;47.698;19.050;2022-10-10T00:12:32;12.53;60.77
64937;SHT30;51452;47.698;19.050;2022-10-10T00:14:57;12.50;61.03
64937;SHT30;51452;47.698;19.050;2022-10-10T00:17:23;12.37;60.66
64937;SHT30;51452;47.698;19.050;2022-10-10T00:19:48;12.35;60.85
64937;SHT30;51452;47.698;19.050;2022-10-10T00:22:13;12.33;61.07
64937;SHT30;51452;47.698;19.050;2022-10-10T00:24:39;12.23;61.63
64937;SHT30;51452;47.698;19.050;2022-10-10T00:27:04;12.22;61.65
64937;SHT30;51452;47.698;19.050;2022-10-10T00:29:29;12.14;61.76
64937;SHT30;51452;47.698;19.050;2022-10-10T00:31:54;12.01;62.44
64937;SHT30;51452;47.698;19.050;2022-10-10T00:34:20;12.04;62.35
64937;SHT30;51452;47.698;19.050;2022-10-10T00:36:45;12.05;62.48
64937;SHT30;51452;47.698;19.050;2022-10-10T00:39:10;12.09;62.31
64937;SHT30;51452;47.698;19.050;2022-10-10T00:41:36;12.12;61.83
64937;SHT30;51452;47.698;19.050;2022-10-10T00:44:08;12.14;61.99
64937;SHT30;51452;47.698;19.050;2022-10-10T00:46:34;12.12;62.20
64937;SHT30;51452;47.698;19.050;2022-10-10T00:49:00;11.94;62.53
64937;SHT30;51452;47.698;19.050;2022-10-10T00:51:26;11.92;62.52
64937;SHT30;51452;47.698;19.050;2022-10-10T00:53:57;12.01;62.33
64937;SHT30;51452;47.698;19.050;2022-10-10T00:56:29;12.02;62.49
64937;SHT30;51452;47.698;19.050;2022-10-10T00:58:57;12.08;62.63
64937;SHT30;51452;47.698;19.050;2022-10-10T01:01:25;12.02;62.83
64937;SHT30;51452;47.698;19.050;2022-10-10T01:03:55;11.99;62.73
64937;SHT30;51452;47.698;19.050;2022-10-10T01:06:21;11.98;62.76
64937;SHT30;51452;47.698;19.050;2022-10-10T01:08:46;11.95;62.70
64937;SHT30;51452;47.698;19.050;2022-10-10T01:11:32;11.89;62.85
64937;SHT30;51452;47.698;19.050;2022-10-10T01:16:52;11.64;63.55
64937;SHT30;51452;47.698;19.050;2022-10-10T01:24:48;11.67;62.82
64937;SHT30;51452;47.698;19.050;2022-10-10T01:27:28;11.74;62.17
64937;SHT30;51452;47.698;19.050;2022-10-10T01:30:05;11.79;61.63
64937;SHT30;51452;47.698;19.050;2022-10-10T01:32:52;11.79;61.83
64937;SHT30;51452;47.698;19.050;2022-10-10T01:38:01;11.88;60.86
64937;SHT30;51452;47.698;19.050;2022-10-10T01:40:35;11.96;59.60
64937;SHT30;51452;47.698;19.050;2022-10-10T01:43:05;12.04;59.47
64937;SHT30;51452;47.698;19.050;2022-10-10T01:45:31;12.08;59.01
64937;SHT30;51452;47.698;19.050;2022-10-10T01:48:00;12.16;58.27
64937;SHT30;51452;47.698;19.050;2022-10-10T01:50:27;12.23;58.78
64937;SHT30;51452;47.698;19.050;2022-10-10T01:53:25;12.23;56.17
64937;SHT30;51452;47.698;19.050;2022-10-10T01:55:54;12.25;59.37
64937;SHT30;51452;47.698;19.050;2022-10-10T01:58:44;12.18;59.66
64937;SHT30;51452;47.698;19.050;2022-10-10T02:01:38;12.08;59.73
64937;SHT30;51452;47.698;19.050;2022-10-10T02:04:29;11.92;60.14
64937;SHT30;51452;47.698;19.050;2022-10-10T02:07:01;11.94;57.74
64937;SHT30;51452;47.698;19.050;2022-10-10T02:09:37;11.96;59.39
64937;SHT30;51452;47.698;19.050;2022-10-10T02:12:05;12.02;59.52
64937;SHT30;51452;47.698;19.050;2022-10-10T02:14:36;11.96;58.94
64937;SHT30;51452;47.698;19.050;2022-10-10T02:17:04;12.02;57.77
64937;SHT30;51452;47.698;19.050;2022-10-10T02:19:32;12.06;58.95
64937;SHT30;51452;47.698;19.050;2022-10-10T02:21:58;12.05;58.39
64937;SHT30;51452;47.698;19.050;2022-10-10T02:24:24;12.08;59.14
64937;SHT30;51452;47.698;19.050;2022-10-10T02:26:59;12.01;58.76
64937;SHT30;51452;47.698;19.050;2022-10-10T02:29:29;12.01;59.42
64937;SHT30;51452;47.698;19.050;2022-10-10T02:32:04;11.99;59.23
64937;SHT30;51452;47.698;19.050;2022-10-10T02:34:35;11.98;59.60
64937;SHT30;51452;47.698;19.050;2022-10-10T02:37:07;11.98;59.89
64937;SHT30;51452;47.698;19.050;2022-10-10T02:39:36;11.98;59.49
64937;SHT30;51452;47.698;19.050;2022-10-10T02:42:04;11.99;59.09
64937;SHT30;51452;47.698;19.050;2022-10-10T02:44:31;11.96;59.84
64937;SHT30;51452;47.698;19.050;2022-10-10T02:46:57;11.92;60.45
64937;SHT30;51452;47.698;19.050;2022-10-10T02:49:25;11.84;60.78
64937;SHT30;51452;47.698;19.050;2022-10-10T02:51:51;11.77;61.29
64937;SHT30;51452;47.698;19.050;2022-10-10T02:54:17;11.74;61.46
64937;SHT30;51452;47.698;19.050;2022-10-10T02:56:43;11.64;61.48
64937;SHT30;51452;47.698;19.050;2022-10-10T02:59:08;11.63;61.67
64937;SHT30;51452;47.698;19.050;2022-10-10T03:01:33;11.58;62.07
64937;SHT30;51452;47.698;19.050;2022-10-10T03:03:59;11.55;62.22
64937;SHT30;51452;47.698;19.050;2022-10-10T03:06:24;11.45;62.74
64937;SHT30;51452;47.698;19.050;2022-10-10T03:08:49;11.40;63.13
64937;SHT30;51452;47.698;19.050;2022-10-10T03:11:14;11.35;63.49
64937;SHT30;51452;47.698;19.050;2022-10-10T03:13:40;11.27;62.90
64937;SHT30;51452;47.698;19.050;2022-10-10T03:16:05;11.22;63.50
64937;SHT30;51452;47.698;19.050;2022-10-10T03:18:31;11.22;63.80
64937;SHT30;51452;47.698;19.050;2022-10-10T03:20:56;11.16;64.21
64937;SHT30;51452;47.698;19.050;2022-10-10T03:23:24;11.22;63.66
64937;SHT30;51452;47.698;19.050;2022-10-10T03:25:49;11.17;63.81
64937;SHT30;51452;47.698;19.050;2022-10-10T03:28:15;11.12;63.93
64937;SHT30;51452;47.698;19.050;2022-10-10T03:30:41;11.10;63.61
64937;SHT30;51452;47.698;19.050;2022-10-10T03:33:07;11.09;64.07
64937;SHT30;51452;47.698;19.050;2022-10-10T03:35:32;11.06;64.25
64937;SHT30;51452;47.698;19.050;2022-10-10T03:37:58;11.03;64.33
64937;SHT30;51452;47.698;19.050;2022-10-10T03:40:25;10.99;64.21
64937;SHT30;51452;47.698;19.050;2022-10-10T03:42:50;10.93;64.24
64937;SHT30;51452;47.698;19.050;2022-10-10T03:45:16;10.95;63.72
64937;SHT30;51452;47.698;19.050;2022-10-10T03:47:41;10.92;64.20
64937;SHT30;51452;47.698;19.050;2022-10-10T03:50:07;10.96;64.22
64937;SHT30;51452;47.698;19.050;2022-10-10T03:52:32;10.95;63.89
64937;SHT30;51452;47.698;19.050;2022-10-10T03:54:58;10.92;64.28
64937;SHT30;51452;47.698;19.050;2022-10-10T03:57:23;10.92;64.22
64937;SHT30;51452;47.698;19.050;2022-10-10T03:59:48;10.96;63.86
64937;SHT30;51452;47.698;19.050;2022-10-10T04:02:14;10.99;63.85
64937;SHT30;51452;47.698;19.050;2022-10-10T04:04:39;11.02;62.40
64937;SHT30;51452;47.698;19.050;2022-10-10T04:07:04;11.02;62.79
64937;SHT30;51452;47.698;19.050;2022-10-10T04:09:30;11.09;62.13
64937;SHT30;51452;47.698;19.050;2022-10-10T04:11:55;11.13;62.62
64937;SHT30;51452;47.698;19.050;2022-10-10T04:14:21;11.12;63.07
64937;SHT30;51452;47.698;19.050;2022-10-10T04:16:46;11.07;63.36
64937;SHT30;51452;47.698;19.050;2022-10-10T04:19:11;11.09;63.54
64937;SHT30;51452;47.698;19.050;2022-10-10T04:21:37;11.10;63.08
64937;SHT30;51452;47.698;19.050;2022-10-10T04:24:02;11.17;59.68
64937;SHT30;51452;47.698;19.050;2022-10-10T04:26:27;11.23;61.92
64937;SHT30;51452;47.698;19.050;2022-10-10T04:28:53;11.23;59.89
64937;SHT30;51452;47.698;19.050;2022-10-10T04:31:18;11.24;60.29
64937;SHT30;51452;47.698;19.050;2022-10-10T04:33:43;11.31;61.45
64937;SHT30;51452;47.698;19.050;2022-10-10T04:36:09;11.35;61.48
64937;SHT30;51452;47.698;19.050;2022-10-10T04:38:34;11.34;61.39
64937;SHT30;51452;47.698;19.050;2022-10-10T04:40:59;11.30;61.28
64937;SHT30;51452;47.698;19.050;2022-10-10T04:43:25;11.27;61.92
64937;SHT30;51452;47.698;19.050;2022-10-10T04:45:50;11.28;62.34
64937;SHT30;51452;47.698;19.050;2022-10-10T04:48:15;11.24;62.13
64937;SHT30;51452;47.698;19.050;2022-10-10T04:50:41;11.20;62.39
64937;SHT30;51452;47.698;19.050;2022-10-10T04:53:07;11.13;62.57
64937;SHT30;51452;47.698;19.050;2022-10-10T04:55:33;11.07;62.91
64937;SHT30;51452;47.698;19.050;2022-10-10T04:57:58;10.99;63.32
64937;SHT30;51452;47.698;19.050;2022-10-10T05:00:23;10.95;63.61
64937;SHT30;51452;47.698;19.050;2022-10-10T05:02:49;10.91;63.84
64937;SHT30;51452;47.698;19.050;2022-10-10T05:05:14;10.89;63.81
64937;SHT30;51452;47.698;19.050;2022-10-10T05:07:40;10.91;64.06
64937;SHT30;51452;47.698;19.050;2022-10-10T05:10:05;10.86;63.93
64937;SHT30;51452;47.698;19.050;2022-10-10T05:12:31;10.92;63.87
64937;SHT30;51452;47.698;19.050;2022-10-10T05:14:57;10.95;64.07
64937;SHT30;51452;47.698;19.050;2022-10-10T05:17:22;11.00;64.35
64937;SHT30;51452;47.698;19.050;2022-10-10T05:19:48;11.04;63.69
64937;SHT30;51452;47.698;19.050;2022-10-10T05:22:13;11.04;63.67
64937;SHT30;51452;47.698;19.050;2022-10-10T05:24:38;11.13;63.79
64937;SHT30;51452;47.698;19.050;2022-10-10T05:27:04;11.16;63.44
64937;SHT30;51452;47.698;19.050;2022-10-10T05:29:29;11.20;63.83
64937;SHT30;51452;47.698;19.050;2022-10-10T05:31:55;11.24;64.03
64937;SHT30;51452;47.698;19.050;2022-10-10T05:34:20;11.22;64.22
64937;SHT30;51452;47.698;19.050;2022-10-10T05:36:45;11.26;64.61
64937;SHT30;51452;47.698;19.050;2022-10-10T05:39:11;11.27;64.60
64937;SHT30;51452;47.698;19.050;2022-10-10T05:41:36;11.33;64.37
64937;SHT30;51452;47.698;19.050;2022-10-10T05:44:02;11.38;63.38
64937;SHT30;51452;47.698;19.050;2022-10-10T05:46:27;11.43;62.64
64937;SHT30;51452;47.698;19.050;2022-10-10T05:48:53;11.54;62.62
64937;SHT30;51452;47.698;19.050;2022-10-10T05:51:19;11.64;62.37
64937;SHT30;51452;47.698;19.050;2022-10-10T05:53:45;11.73;63.10
64937;SHT30;51452;47.698;19.050;2022-10-10T05:56:11;11.78;63.15
64937;SHT30;51452;47.698;19.050;2022-10-10T05:58:37;11.79;63.60
64937;SHT30;51452;47.698;19.050;2022-10-10T06:01:04;11.89;63.29
64937;SHT30;51452;47.698;19.050;2022-10-10T06:03:30;11.94;62.99
64937;SHT30;51452;47.698;19.050;2022-10-10T06:05:55;12.02;63.12
64937;SHT30;51452;47.698;19.050;2022-10-10T06:08:20;12.09;62.63
64937;SHT30;51452;47.698;19.050;2022-10-10T06:10:46;12.15;62.60
64937;SHT30;51452;47.698;19.050;2022-10-10T06:13:14;12.22;62.89
64937;SHT30;51452;47.698;19.050;2022-10-10T06:15:40;12.32;61.85
64937;SHT30;51452;47.698;19.050;2022-10-10T06:18:06;12.36;63.43
64937;SHT30;51452;47.698;19.050;2022-10-10T06:20:35;12.42;62.34
64937;SHT30;51452;47.698;19.050;2022-10-10T06:23:02;12.47;63.23
64937;SHT30;51452;47.698;19.050;2022-10-10T06:25:27;12.56;62.13
64937;SHT30;51452;47.698;19.050;2022-10-10T06:27:53;12.63;60.28
64937;SHT30;51452;47.698;19.050;2022-10-10T06:30:18;12.72;58.71
64937;SHT30;51452;47.698;19.050;2022-10-10T06:32:43;12.81;59.82
64937;SHT30;51452;47.698;19.050;2022-10-10T06:35:09;12.87;61.18
64937;SHT30;51452;47.698;19.050;2022-10-10T06:37:34;12.98;60.37
64937;SHT30;51452;47.698;19.050;2022-10-10T06:40:00;12.95;58.38
64937;SHT30;51452;47.698;19.050;2022-10-10T06:42:25;13.11;60.14
64937;SHT30;51452;47.698;19.050;2022-10-10T06:44:50;13.15;57.18
64937;SHT30;51452;47.698;19.050;2022-10-10T06:47:16;13.21;57.53
64937;SHT30;51452;47.698;19.050;2022-10-10T06:49:41;13.32;58.32
64937;SHT30;51452;47.698;19.050;2022-10-10T06:52:07;13.26;58.41
64937;SHT30;51452;47.698;19.050;2022-10-10T06:54:32;13.28;58.34
64937;SHT30;51452;47.698;19.050;2022-10-10T06:56:57;13.38;59.66
64937;SHT30;51452;47.698;19.050;2022-10-10T06:59:23;13.45;59.03
64937;SHT30;51452;47.698;19.050;2022-10-10T07:01:48;13.56;59.89
64937;SHT30;51452;47.698;19.050;2022-10-10T07:04:14;13.61;58.91
64937;SHT30;51452;47.698;19.050;2022-10-10T07:06:39;13.65;56.82
64937;SHT30;51452;47.698;19.050;2022-10-10T07:09:05;13.65;57.34
64937;SHT30;51452;47.698;19.050;2022-10-10T07:11:30;13.73;56.88
64937;SHT30;51452;47.698;19.050;2022-10-10T07:13:56;13.76;58.63
64937;SHT30;51452;47.698;19.050;2022-10-10T07:16:22;13.80;57.69
64937;SHT30;51452;47.698;19.050;2022-10-10T07:18:47;13.83;55.00
64937;SHT30;51452;47.698;19.050;2022-10-10T07:21:13;13.90;56.80
64937;SHT30;51452;47.698;19.050;2022-10-10T07:23:39;13.85;58.52
64937;SHT30;51452;47.698;19.050;2022-10-10T07:26:06;13.96;58.06
64937;SHT30;51452;47.698;19.050;2022-10-10T07:28:33;14.10;58.41
64937;SHT30;51452;47.698;19.050;2022-10-10T07:31:04;14.06;55.09
64937;SHT30;51452;47.698;19.050;2022-10-10T07:33:41;14.17;55.29
64937;SHT30;51452;47.698;19.050;2022-10-10T07:36:07;14.27;55.00
64937;SHT30;51452;47.698;19.050;2022-10-10T07:38:33;14.33;55.19
64937;SHT30;51452;47.698;19.050;2022-10-10T07:40:59;14.34;53.84
64937;SHT30;51452;47.698;19.050;2022-10-10T07:43:24;14.40;52.78
64937;SHT30;51452;47.698;19.050;2022-10-10T07:45:49;14.33;52.62
64937;SHT30;51452;47.698;19.050;2022-10-10T07:48:15;14.38;53.38
64937;SHT30;51452;47.698;19.050;2022-10-10T07:50:41;14.37;51.90
64937;SHT30;51452;47.698;19.050;2022-10-10T07:53:08;14.41;51.09
64937;SHT30;51452;47.698;19.050;2022-10-10T07:55:33;14.47;51.74
64937;SHT30;51452;47.698;19.050;2022-10-10T07:57:59;14.49;51.49
64937;SHT30;51452;47.698;19.050;2022-10-10T08:00:28;14.49;51.94
64937;SHT30;51452;47.698;19.050;2022-10-10T08:02:53;14.51;52.13
64937;SHT30;51452;47.698;19.050;2022-10-10T08:05:19;14.52;51.95
64937;SHT30;51452;47.698;19.050;2022-10-10T08:07:44;14.60;52.40
64937;SHT30;51452;47.698;19.050;2022-10-10T08:10:09;14.61;53.07
64937;SHT30;51452;47.698;19.050;2022-10-10T08:12:35;14.69;52.34
64937;SHT30;51452;47.698;19.050;2022-10-10T08:15:00;14.68;51.68
64937;SHT30;51452;47.698;19.050;2022-10-10T08:17:26;14.64;51.32
64937;SHT30;51452;47.698;19.050;2022-10-10T08:19:51;14.61;53.89
64937;SHT30;51452;47.698;19.050;2022-10-10T08:22:16;14.68;52.68
64937;SHT30;51452;47.698;19.050;2022-10-10T08:24:42;14.75;52.58
64937;SHT30;51452;47.698;19.050;2022-10-10T08:27:07;14.69;52.45
64937;SHT30;51452;47.698;19.050;2022-10-10T08:29:32;14.75;52.53
64937;SHT30;51452;47.698;19.050;2022-10-10T08:31:58;14.84;52.42
64937;SHT30;51452;47.698;19.050;2022-10-10T08:34:23;14.79;52.20
64937;SHT30;51452;47.698;19.050;2022-10-10T08:36:49;14.89;53.24
64937;SHT30;51452;47.698;19.050;2022-10-10T08:39:16;14.95;52.56
64937;SHT30;51452;47.698;19.050;2022-10-10T08:44:18;14.92;52.98
64937;SHT30;51452;47.698;19.050;2022-10-10T08:49:44;14.84;53.14
64937;SHT30;51452;47.698;19.050;2022-10-10T08:52:31;14.99;53.88
64937;SHT30;51452;47.698;19.050;2022-10-10T08:54:59;15.07;52.66
64937;SHT30;51452;47.698;19.050;2022-10-10T08:57:35;15.09;52.44
64937;SHT30;51452;47.698;19.050;2022-10-10T09:00:06;15.02;52.46
64937;SHT30;51452;47.698;19.050;2022-10-10T09:02:48;15.10;52.36
64937;SHT30;51452;47.698;19.050;2022-10-10T09:05:16;15.22;51.81
64937;SHT30;51452;47.698;19.050;2022-10-10T09:13:35;15.40;51.73
64937;SHT30;51452;47.698;19.050;2022-10-10T09:16:07;15.43;51.66
64937;SHT30;51452;47.698;19.050;2022-10-10T09:21:18;15.54;51.92
64937;SHT30;51452;47.698;19.050;2022-10-10T09:26:50;15.71;51.19
64937;SHT30;51452;47.698;19.050;2022-10-10T09:31:53;15.74;50.92
64937;SHT30;51452;47.698;19.050;2022-10-10T09:36:54;15.77;51.49
64937;SHT30;51452;47.698;19.050;2022-10-10T09:39:36;15.83;49.00
64937;SHT30;51452;47.698;19.050;2022-10-10T09:42:10;15.85;49.27
64937;SHT30;51452;47.698;19.050;2022-10-10T09:44:37;15.87;49.13
64937;SHT30;51452;47.698;19.050;2022-10-10T09:47:03;15.84;50.11
64937;SHT30;51452;47.698;19.050;2022-10-10T09:49:29;15.91;48.08
64937;SHT30;51452;47.698;19.050;2022-10-10T09:51:54;15.97;52.00
64937;SHT30;51452;47.698;19.050;2022-10-10T09:54:20;15.98;49.38
64937;SHT30;51452;47.698;19.050;2022-10-10T09:56:55;16.04;48.24
64937;SHT30;51452;47.698;19.050;2022-10-10T09:59:47;15.97;47.38
64937;SHT30;51452;47.698;19.050;2022-10-10T10:04:41;16.18;47.36
64937;SHT30;51452;47.698;19.050;2022-10-10T10:09:55;16.29;46.86
64937;SHT30;51452;47.698;19.050;2022-10-10T10:12:27;16.44;47.89
64937;SHT30;51452;47.698;19.050;2022-10-10T10:15:00;16.38;49.23
64937;SHT30;51452;47.698;19.050;2022-10-10T10:17:26;16.45;47.15
64937;SHT30;51452;47.698;19.050;2022-10-10T10:19:51;16.59;47.94
64937;SHT30;51452;47.698;19.050;2022-10-10T10:24:55;16.70;45.71
64937;SHT30;51452;47.698;19.050;2022-10-10T10:27:23;16.70;47.52
64937;SHT30;51452;47.698;19.050;2022-10-10T10:29:54;16.57;47.06
64937;SHT30;51452;47.698;19.050;2022-10-10T10:35:42;16.72;46.01
64937;SHT30;51452;47.698;19.050;2022-10-10T10:48:56;16.93;46.22
64937;SHT30;51452;47.698;19.050;2022-10-10T10:51:51;16.99;45.83
64937;SHT30;51452;47.698;19.050;2022-10-10T10:57:07;16.93;46.73
64937;SHT30;51452;47.698;19.050;2022-10-10T10:59:50;17.02;44.97
64937;SHT30;51452;47.698;19.050;2022-10-10T11:02:40;16.96;46.27
64937;SHT30;51452;47.698;19.050;2022-10-10T11:05:32;17.04;47.12
64937;SHT30;51452;47.698;19.050;2022-10-10T11:11:15;17.08;46.12
64937;SHT30;51452;47.698;19.050;2022-10-10T11:19:06;17.10;46.48
64937;SHT30;51452;47.698;19.050;2022-10-10T11:21:40;17.10;45.05
64937;SHT30;51452;47.698;19.050;2022-10-10T11:24:19;17.07;44.84
64937;SHT30;51452;47.698;19.050;2022-10-10T11:26:50;17.25;46.09
64937;SHT30;51452;47.698;19.050;2022-10-10T11:31:49;17.31;45.29
64937;SHT30;51452;47.698;19.050;2022-10-10T11:35:02;17.18;44.42
64937;SHT30;51452;47.698;19.050;2022-10-10T11:37:30;17.37;45.97
64937;SHT30;51452;47.698;19.050;2022-10-10T11:40:00;17.49;46.02
64937;SHT30;51452;47.698;19.050;2022-10-10T11:42:52;17.45;45.44
64937;SHT30;51452;47.698;19.050;2022-10-10T11:45:35;17.59;45.67
64937;SHT30;51452;47.698;19.050;2022-10-10T11:48:17;17.54;43.51
64937;SHT30;51452;47.698;19.050;2022-10-10T11:50:43;17.66;45.26
64937;SHT30;51452;47.698;19.050;2022-10-10T11:53:23;17.71;43.37
64937;SHT30;51452;47.698;19.050;2022-10-10T11:55:55;17.62;44.07
64937;SHT30;51452;47.698;19.050;2022-10-10T11:58:26;17.72;44.07
64937;SHT30;51452;47.698;19.050;2022-10-10T12:00:59;17.75;43.62
64937;SHT30;51452;47.698;19.050;2022-10-10T12:03:25;17.79;44.26
64937;SHT30;51452;47.698;19.050;2022-10-10T12:06:02;17.85;44.08
64937;SHT30;51452;47.698;19.050;2022-10-10T12:08:39;17.83;44.25
64937;SHT30;51452;47.698;19.050;2022-10-10T12:11:35;17.87;43.67
64937;SHT30;51452;47.698;19.050;2022-10-10T12:14:05;17.83;46.29
64937;SHT30;51452;47.698;19.050;2022-10-10T12:16:33;17.99;43.38
64937;SHT30;51452;47.698;19.050;2022-10-10T12:19:06;18.07;43.73
64937;SHT30;51452;47.698;19.050;2022-10-10T12:22:00;18.06;43.54
64937;SHT30;51452;47.698;19.050;2022-10-10T12:24:32;18.17;43.54
64937;SHT30;51452;47.698;19.050;2022-10-10T12:29:45;18.18;42.73
64937;SHT30;51452;47.698;19.050;2022-10-10T12:48:03;18.23;43.24
64937;SHT30;51452;47.698;19.050;2022-10-10T12:50:32;18.14;42.18
64937;SHT30;51452;47.698;19.050;2022-10-10T12:53:01;18.05;43.84
64937;SHT30;51452;47.698;19.050;2022-10-10T12:55:30;17.95;41.87
64937;SHT30;51452;47.698;19.050;2022-10-10T12:57:59;17.92;43.08
64937;SHT30;51452;47.698;19.050;2022-10-10T13:00:34;17.90;43.11
64937;SHT30;51452;47.698;19.050;2022-10-10T13:03:03;17.90;43.19
64937;SHT30;51452;47.698;19.050;2022-10-10T13:05:35;17.86;44.49
64937;SHT30;51452;47.698;19.050;2022-10-10T13:08:13;17.82;43.84
64937;SHT30;51452;47.698;19.050;2022-10-10T13:10:40;17.83;44.17
64937;SHT30;51452;47.698;19.050;2022-10-10T13:13:17;17.76;43.61
64937;SHT30;51452;47.698;19.050;2022-10-10T13:15:51;17.78;44.47
64937;SHT30;51452;47.698;19.050;2022-10-10T13:18:40;17.78;45.26
64937;SHT30;51452;47.698;19.050;2022-10-10T13:21:11;17.85;44.83
64937;SHT30;51452;47.698;19.050;2022-10-10T13:23:43;17.83;44.60
64937;SHT30;51452;47.698;19.050;2022-10-10T13:26:32;17.87;44.48
64937;SHT30;51452;47.698;19.050;2022-10-10T13:29:15;17.95;43.79
64937;SHT30;51452;47.698;19.050;2022-10-10T13:31:42;17.93;43.48
64937;SHT30;51452;47.698;19.050;2022-10-10T13:34:08;17.95;42.95
64937;SHT30;51452;47.698;19.050;2022-10-10T13:36:33;17.95;42.77
64937;SHT30;51452;47.698;19.050;2022-10-10T13:39:00;17.92;43.08
64937;SHT30;51452;47.698;19.050;2022-10-10T13:41:26;17.90;43.10
64937;SHT30;51452;47.698;19.050;2022-10-10T13:43:53;17.95;44.23
64937;SHT30;51452;47.698;19.050;2022-10-10T13:46:20;17.90;44.56
64937;SHT30;51452;47.698;19.050;2022-10-10T13:48:47;17.96;44.00
64937;SHT30;51452;47.698;19.050;2022-10-10T13:51:13;17.95;43.09
64937;SHT30;51452;47.698;19.050;2022-10-10T13:53:49;17.97;42.99
64937;SHT30;51452;47.698;19.050;2022-10-10T13:56:27;17.95;42.86
64937;SHT30;51452;47.698;19.050;2022-10-10T14:01:35;18.06;44.52
64937;SHT30;51452;47.698;19.050;2022-10-10T14:06:32;18.16;41.89
64937;SHT30;51452;47.698;19.050;2022-10-10T14:09:08;18.10;41.35
64937;SHT30;51452;47.698;19.050;2022-10-10T14:11:39;18.23;41.56
64937;SHT30;51452;47.698;19.050;2022-10-10T14:14:12;18.10;40.12
64937;SHT30;51452;47.698;19.050;2022-10-10T14:16:39;18.20;42.14
64937;SHT30;51452;47.698;19.050;2022-10-10T14:19:15;18.17;44.44
64937;SHT30;51452;47.698;19.050;2022-10-10T14:21:42;18.17;43.88
64937;SHT30;51452;47.698;19.050;2022-10-10T14:24:07;18.20;43.55
64937;SHT30;51452;47.698;19.050;2022-10-10T14:26:34;18.07;43.32
64937;SHT30;51452;47.698;19.050;2022-10-10T14:28:59;18.06;43.82
64937;SHT30;51452;47.698;19.050;2022-10-10T14:31:24;17.95;42.75
64937;SHT30;51452;47.698;19.050;2022-10-10T14:33:53;17.95;43.11
64937;SHT30;51452;47.698;19.050;2022-10-10T14:36:18;17.92;44.45
64937;SHT30;51452;47.698;19.050;2022-10-10T14:38:43;17.82;44.00
64937;SHT30;51452;47.698;19.050;2022-10-10T14:41:09;17.71;43.99
64937;SHT30;51452;47.698;19.050;2022-10-10T14:43:37;17.69;44.18
64937;SHT30;51452;47.698;19.050;2022-10-10T14:46:02;17.66;45.13
64937;SHT30;51452;47.698;19.050;2022-10-10T14:48:28;17.56;44.73
64937;SHT30;51452;47.698;19.050;2022-10-10T14:50:53;17.54;44.56
64937;SHT30;51452;47.698;19.050;2022-10-10T14:53:18;17.39;45.10
64937;SHT30;51452;47.698;19.050;2022-10-10T14:55:44;17.38;44.98
64937;SHT30;51452;47.698;19.050;2022-10-10T14:58:21;17.23;44.37
64937;SHT30;51452;47.698;19.050;2022-10-10T15:00:47;17.24;44.89
64937;SHT30;51452;47.698;19.050;2022-10-10T15:03:13;17.20;44.70
64937;SHT30;51452;47.698;19.050;2022-10-10T15:05:39;17.14;44.97
64937;SHT30;51452;47.698;19.050;2022-10-10T15:08:05;17.15;45.58
64937;SHT30;51452;47.698;19.050;2022-10-10T15:10:31;17.13;46.83
64937;SHT30;51452;47.698;19.050;2022-10-10T15:12:56;17.00;45.55
64937;SHT30;51452;47.698;19.050;2022-10-10T15:15:22;16.99;45.51
64937;SHT30;51452;47.698;19.050;2022-10-10T15:17:47;16.94;45.81
64937;SHT30;51452;47.698;19.050;2022-10-10T15:20:12;16.93;45.77
64937;SHT30;51452;47.698;19.050;2022-10-10T15:22:38;16.83;47.02
64937;SHT30;51452;47.698;19.050;2022-10-10T15:25:05;16.84;47.27
64937;SHT30;51452;47.698;19.050;2022-10-10T15:27:31;16.75;46.80
64937;SHT30;51452;47.698;19.050;2022-10-10T15:29:57;16.70;46.93
64937;SHT30;51452;47.698;19.050;2022-10-10T15:32:23;16.67;47.33
64937;SHT30;51452;47.698;19.050;2022-10-10T15:34:49;16.62;47.10
64937;SHT30;51452;47.698;19.050;2022-10-10T15:37:15;16.59;47.49
64937;SHT30;51452;47.698;19.050;2022-10-10T15:39:41;16.55;47.24
64937;SHT30;51452;47.698;19.050;2022-10-10T15:42:12;16.49;47.90
64937;SHT30;51452;47.698;19.050;2022-10-10T15:44:43;16.42;47.69
64937;SHT30;51452;47.698;19.050;2022-10-10T15:47:08;16.39;47.88
64937;SHT30;51452;47.698;19.050;2022-10-10T15:49:37;16.33;47.16
64937;SHT30;51452;47.698;19.050;2022-10-10T15:52:03;16.35;47.06
64937;SHT30;51452;47.698;19.050;2022-10-10T15:54:28;16.30;46.84
64937;SHT30;51452;47.698;19.050;2022-10-10T15:56:55;16.29;47.23
64937;SHT30;51452;47.698;19.050;2022-10-10T15:59:20;16.21;47.91
64937;SHT30;51452;47.698;19.050;2022-10-10T16:01:45;16.09;48.45
64937;SHT30;51452;47.698;19.050;2022-10-10T16:04:11;16.06;47.85
64937;SHT30;51452;47.698;19.050;2022-10-10T16:06:36;15.94;49.01
64937;SHT30;51452;47.698;19.050;2022-10-10T16:09:01;15.97;49.02
64937;SHT30;51452;47.698;19.050;2022-10-10T16:11:27;15.91;48.45
64937;SHT30;51452;47.698;19.050;2022-10-10T16:13:54;15.91;48.89
64937;SHT30;51452;47.698;19.050;2022-10-10T16:16:20;15.88;49.69
64937;SHT30;51452;47.698;19.050;2022-10-10T16:18:47;15.87;49.11
64937;SHT30;51452;47.698;19.050;2022-10-10T16:21:15;15.83;49.63
64937;SHT30;51452;47.698;19.050;2022-10-10T16:23:42;15.81;49.42
64937;SHT30;51452;47.698;19.050;2022-10-10T16:26:11;15.77;49.27
64937;SHT30;51452;47.698;19.050;2022-10-10T16:28:37;15.77;49.34
64937;SHT30;51452;47.698;19.050;2022-10-10T16:31:07;15.75;49.83
64937;SHT30;51452;47.698;19.050;2022-10-10T16:33:35;15.71;50.49
64937;SHT30;51452;47.698;19.050;2022-10-10T16:36:05;15.67;50.99
64937;SHT30;51452;47.698;19.050;2022-10-10T16:38:31;15.66;50.52
64937;SHT30;51452;47.698;19.050;2022-10-10T16:41:00;15.64;50.63
64937;SHT30;51452;47.698;19.050;2022-10-10T16:43:26;15.61;51.09
64937;SHT30;51452;47.698;19.050;2022-10-10T16:45:51;15.61;50.83
64937;SHT30;51452;47.698;19.050;2022-10-10T16:48:16;15.56;51.35
64937;SHT30;51452;47.698;19.050;2022-10-10T16:50:42;15.56;52.11
64937;SHT30;51452;47.698;19.050;2022-10-10T16:53:08;15.57;51.22
64937;SHT30;51452;47.698;19.050;2022-10-10T16:55:41;15.49;51.20